Terminal Aerodrome Forecast
Issued by NWS New Orleans/Baton Rouge, LA

Home | Current Version | Previous Version | Text Only | Print | Product List | Glossary On
Versions: 1 2 3 4 5 6 7 8 9 10 11 12
000
FTUS44 KLIX 050520
TAFBTR
TAF
KBTR 050520Z 0506/0606 00000KT 3SM FU SCT002 SCT250
     FM051000 00000KT P6SM SCT025
     FM051300 00000KT P6SM BKN090
     FM051800 13004KT P6SM VCTS SCT040CB BKN250
     FM060000 19007KT P6SM OVC250=

USA.gov is the U.S. government's official web portal to all federal, state and local government web resources and services.